createdAt,value
2018-01-16T06:11:45.894Z,49.22
2018-01-16T06:14:14.870Z,43.28
2018-01-16T06:16:43.723Z,41.35
2018-01-16T06:19:12.555Z,30.58
2018-01-16T06:21:41.385Z,28.15
2018-01-16T06:24:10.185Z,35.95
2018-01-16T06:26:40.183Z,33.80
2018-01-16T06:29:09.205Z,28.83
2018-01-16T06:31:38.109Z,36.30
2018-01-16T06:34:07.010Z,40.92
2018-01-16T06:36:35.935Z,40.42
2018-01-16T06:39:04.885Z,36.50
2018-01-16T06:41:36.188Z,34.35
2018-01-16T06:44:05.094Z,33.05
2018-01-16T06:46:33.948Z,28.25
2018-01-16T06:49:02.838Z,27.90
2018-01-16T06:51:31.764Z,25.45
2018-01-16T06:54:00.637Z,25.85
2018-01-16T06:56:30.338Z,27.85
2018-01-16T06:58:59.174Z,29.90
2018-01-16T07:01:27.988Z,23.73
2018-01-16T07:03:56.901Z,23.42
2018-01-16T07:06:25.742Z,27.95
2018-01-16T07:08:54.562Z,27.35
2018-01-16T07:11:24.337Z,27.05
2018-01-16T07:13:53.231Z,30.00
2018-01-16T07:16:22.066Z,27.40
2018-01-16T07:18:52.610Z,27.33
2018-01-16T07:21:21.879Z,29.55
2018-01-16T07:23:50.830Z,27.98
2018-01-16T07:26:19.737Z,29.95
2018-01-16T07:28:48.621Z,24.85
2018-01-16T07:31:17.539Z,24.58
2018-01-16T07:33:48.922Z,28.08
2018-01-16T07:36:17.813Z,24.08
2018-01-16T07:38:46.685Z,27.55
2018-01-16T07:41:15.593Z,24.40
2018-01-16T07:43:45.271Z,29.27
2018-01-16T07:46:14.115Z,28.08
2018-01-16T07:48:43.067Z,33.90
2018-01-16T07:51:11.904Z,30.83
2018-01-16T07:53:40.770Z,23.92
2018-01-16T07:56:11.490Z,27.77
2018-01-16T07:58:40.358Z,29.80
2018-01-16T08:01:09.183Z,40.40
2018-01-16T08:03:39.114Z,31.85
2018-01-16T08:06:08.010Z,29.42
2018-01-16T08:08:36.800Z,35.17
2018-01-16T08:11:05.664Z,25.52
2018-01-16T08:13:34.599Z,31.80
2018-01-16T08:16:03.429Z,28.77
2018-01-16T08:18:32.555Z,27.17
2018-01-16T08:21:01.543Z,24.90
2018-01-16T08:23:30.398Z,28.77
2018-01-16T08:25:59.474Z,25.05
2018-01-16T08:28:29.420Z,25.58
2018-01-16T08:30:58.326Z,26.12
2018-01-16T08:33:27.402Z,24.12
2018-01-16T08:35:56.286Z,29.23
2018-01-16T08:38:25.237Z,27.67
2018-01-16T08:40:55.274Z,25.40
2018-01-16T08:43:24.142Z,36.00
2018-01-16T08:45:54.337Z,32.70
2018-01-16T08:48:24.048Z,26.92
2018-01-16T08:50:53.041Z,42.67
2018-01-16T08:53:21.990Z,24.40
2018-01-16T08:55:50.919Z,26.02
2018-01-16T08:58:19.856Z,26.42
2018-01-16T09:00:48.706Z,30.80
2018-01-16T09:03:17.695Z,30.88
2018-01-16T09:05:46.616Z,28.73
2018-01-16T09:08:15.482Z,29.35
2018-01-16T09:10:46.029Z,34.33
2018-01-16T09:13:14.858Z,29.20
2018-01-16T09:15:43.767Z,26.10
2018-01-16T09:18:12.716Z,27.10
2018-01-16T09:20:41.624Z,25.77
2018-01-16T09:25:53.194Z,22.75
2018-01-16T09:28:24.630Z,28.15
2018-01-16T09:30:53.537Z,22.83
2018-01-16T09:33:22.530Z,27.75
2018-01-16T09:35:53.124Z,29.77
2018-01-16T09:38:21.962Z,26.33
2018-01-16T09:40:51.860Z,32.90
2018-01-16T09:43:21.644Z,26.80
2018-01-16T09:45:50.462Z,22.50
2018-01-16T09:48:19.299Z,25.50
2018-01-16T09:50:48.416Z,25.45
2018-01-16T09:53:17.336Z,26.45
2018-01-16T09:55:47.354Z,25.40
2018-01-16T09:58:17.360Z,24.83
2018-01-16T10:03:21.412Z,24.92
2018-01-16T10:05:51.218Z,21.77
2018-01-16T10:08:20.240Z,20.20
2018-01-16T10:10:51.033Z,25.33
2018-01-16T10:13:21.501Z,24.17
2018-01-16T10:15:50.466Z,25.05
2018-01-16T10:18:19.562Z,20.05
2018-01-16T10:20:48.550Z,23.55
2018-01-16T10:23:20.190Z,21.98
2018-01-16T10:25:49.589Z,21.67
2018-01-16T10:28:18.751Z,26.45
2018-01-16T10:30:48.422Z,27.20
2018-01-16T10:33:17.515Z,23.85
2018-01-16T10:35:46.673Z,23.08
2018-01-16T10:38:15.577Z,23.08
2018-01-16T10:40:48.185Z,25.50
2018-01-16T10:43:18.329Z,19.00
2018-01-16T10:45:47.707Z,25.33
2018-01-16T10:48:18.546Z,26.87
2018-01-16T10:50:47.641Z,27.62
2018-01-16T10:53:16.670Z,25.42
2018-01-16T10:55:45.969Z,23.92
2018-01-16T10:58:15.034Z,24.65
2018-01-16T11:00:44.029Z,23.62
2018-01-16T11:03:13.968Z,25.05
2018-01-16T11:05:44.687Z,22.23
2018-01-16T11:08:16.048Z,26.98
2018-01-16T11:10:45.150Z,26.02
2018-01-16T11:13:14.333Z,23.55
2018-01-16T11:15:47.108Z,26.80
2018-01-16T11:18:16.004Z,27.30
2018-01-16T11:20:44.856Z,22.92
2018-01-16T11:23:15.328Z,24.98
2018-01-16T11:25:44.161Z,25.33
2018-01-16T11:28:13.098Z,21.05
2018-01-16T11:30:42.971Z,28.33
2018-01-16T11:33:11.789Z,27.85
2018-01-16T11:35:40.617Z,29.75
2018-01-16T11:38:09.501Z,31.33
2018-01-16T11:40:38.378Z,32.05
2018-01-16T11:43:07.244Z,26.73
2018-01-16T11:45:38.682Z,25.15
2018-01-16T11:48:07.533Z,30.55
2018-01-16T11:50:36.381Z,28.48
2018-01-16T11:53:05.390Z,32.25
2018-01-16T11:55:34.329Z,30.15
2018-01-16T11:58:03.252Z,29.75
2018-01-16T12:00:34.582Z,25.35
2018-01-16T12:03:03.435Z,27.37
2018-01-16T12:05:32.367Z,29.52
2018-01-16T12:08:02.285Z,25.25
2018-01-16T12:10:31.113Z,29.70
2018-01-16T12:12:59.977Z,25.67
2018-01-16T12:15:29.824Z,26.87
2018-01-16T12:17:58.780Z,32.58
2018-01-16T12:20:27.689Z,29.65
2018-01-16T12:22:57.586Z,29.12
2018-01-16T12:25:26.416Z,27.62
2018-01-16T12:27:55.244Z,27.05
2018-01-16T12:30:24.348Z,31.33
2018-01-16T12:32:53.209Z,32.97
2018-01-16T12:35:22.117Z,31.37
2018-01-16T12:37:51.000Z,29.15
2018-01-16T12:40:19.944Z,28.60
2018-01-16T12:42:48.813Z,31.15
2018-01-16T12:45:17.913Z,30.55
2018-01-16T12:47:46.789Z,29.37
2018-01-16T12:50:15.645Z,31.10
2018-01-16T12:52:45.342Z,33.97
2018-01-16T12:55:14.219Z,31.17
2018-01-16T12:57:43.123Z,31.58
2018-01-16T13:00:14.475Z,33.50
2018-01-16T13:02:43.406Z,32.42
2018-01-16T13:05:12.254Z,31.30
2018-01-16T13:07:41.284Z,32.88
2018-01-16T13:10:10.248Z,33.72
2018-01-16T13:12:39.087Z,33.63
2018-01-16T13:15:09.824Z,35.05
2018-01-16T13:17:38.655Z,38.25
2018-01-16T13:20:07.601Z,35.53
2018-01-16T13:22:36.462Z,38.92
2018-01-16T13:25:05.337Z,38.72
2018-01-16T13:27:34.157Z,35.72
2018-01-16T13:30:08.227Z,33.60
2018-01-16T13:32:37.061Z,39.75
2018-01-16T13:35:05.978Z,35.97
2018-01-16T13:37:34.905Z,37.03
2018-01-16T13:40:03.773Z,34.10
2018-01-16T13:42:32.651Z,33.28
2018-01-16T13:45:03.201Z,33.20
2018-01-16T13:47:32.040Z,35.28
2018-01-16T13:50:00.928Z,37.15
2018-01-16T13:52:30.677Z,42.30
2018-01-16T13:54:59.554Z,39.22
2018-01-16T13:57:28.405Z,42.78
2018-01-16T13:59:59.006Z,47.33
2018-01-16T14:02:27.807Z,35.30
2018-01-16T14:04:56.687Z,36.00
2018-01-16T14:07:25.648Z,35.92
2018-01-16T14:09:54.525Z,40.08
2018-01-16T14:12:23.409Z,39.72
2018-01-16T14:14:52.290Z,38.33
2018-01-16T14:17:21.105Z,39.75
2018-01-16T14:19:49.918Z,39.75
2018-01-16T14:22:19.844Z,31.95
2018-01-16T14:24:48.768Z,47.40
2018-01-16T14:27:17.624Z,44.55
2018-01-16T14:29:49.109Z,56.85
2018-01-16T14:32:18.330Z,47.20
2018-01-16T14:34:51.155Z,45.53
2018-01-16T14:37:20.222Z,49.60
2018-01-16T14:39:49.314Z,42.83
2018-01-16T14:42:19.267Z,40.58
2018-01-16T14:44:48.308Z,41.10
2018-01-16T14:47:18.152Z,46.37
2018-01-16T14:49:49.733Z,46.78
2018-01-16T14:52:19.461Z,62.80
2018-01-16T14:54:49.517Z,58.47
2018-01-16T14:57:20.455Z,48.33
2018-01-16T14:59:49.571Z,53.00
2018-01-16T15:02:19.548Z,45.97
2018-01-16T15:04:53.831Z,45.90
2018-01-16T15:07:23.691Z,46.17
2018-01-16T15:09:53.494Z,47.30
2018-01-16T15:12:22.532Z,51.70
2018-01-16T15:14:51.485Z,54.33
2018-01-16T15:17:20.938Z,62.35
2018-01-16T15:19:50.158Z,199.48
2018-01-16T15:22:19.176Z,146.30
2018-01-16T15:24:48.347Z,69.55
2018-01-16T15:27:19.883Z,59.58
2018-01-16T15:29:49.239Z,57.08
2018-01-16T15:32:18.732Z,105.78
2018-01-16T15:34:48.000Z,75.60
2018-01-16T15:37:17.030Z,148.73
2018-01-16T15:39:46.134Z,86.85
2018-01-16T15:42:16.376Z,64.18
2018-01-16T15:44:45.610Z,63.22
2018-01-16T15:47:14.595Z,58.85
2018-01-16T15:49:43.770Z,48.38
2018-01-16T15:52:13.655Z,60.55
2018-01-16T15:54:43.779Z,60.20
2018-01-16T15:57:17.236Z,56.13
2018-01-16T15:59:46.786Z,73.28
2018-01-16T16:02:15.958Z,67.82
2018-01-16T16:04:46.815Z,64.10
2018-01-16T16:07:16.425Z,49.28
2018-01-16T16:09:46.132Z,45.95
2018-01-16T16:12:15.234Z,56.40
2018-01-16T16:14:45.028Z,51.85
2018-01-16T16:17:14.030Z,55.35
2018-01-16T16:19:44.774Z,61.67
2018-01-16T16:22:14.620Z,58.85
2018-01-16T16:24:43.890Z,73.68
2018-01-16T16:27:15.784Z,78.37
2018-01-16T16:29:44.879Z,78.78
2018-01-16T16:32:15.734Z,63.80
2018-01-16T16:34:47.237Z,59.17
2018-01-16T16:37:16.333Z,64.90
2018-01-16T16:39:45.428Z,66.45
2018-01-16T16:42:14.655Z,60.60
2018-01-16T16:44:44.744Z,60.00
2018-01-16T16:47:13.958Z,58.87
2018-01-16T16:49:45.003Z,53.63
2018-01-16T16:52:15.046Z,46.83
2018-01-16T16:54:44.592Z,48.87
2018-01-16T16:57:15.959Z,49.83
2018-01-16T16:59:45.985Z,39.97
2018-01-16T17:02:18.356Z,36.00
2018-01-16T17:04:47.448Z,39.63
2018-01-16T17:07:16.500Z,38.72
2018-01-16T17:09:47.181Z,37.88
2018-01-16T17:12:16.347Z,43.87
2018-01-16T17:14:46.952Z,33.88
2018-01-16T17:17:16.210Z,41.37
2018-01-16T17:19:46.858Z,38.17
2018-01-16T17:22:17.508Z,39.33
2018-01-16T17:24:47.649Z,39.88
2018-01-16T17:27:19.622Z,37.80
2018-01-16T17:29:49.058Z,47.58
2018-01-16T17:32:18.297Z,47.45
2018-01-16T17:34:51.960Z,37.42
2018-01-16T17:37:21.546Z,45.95
2018-01-16T17:39:50.774Z,41.28
2018-01-16T17:42:20.169Z,50.00
2018-01-16T17:44:50.149Z,42.00
2018-01-16T17:47:19.284Z,36.22
2018-01-16T17:49:49.542Z,38.15
2018-01-16T17:52:18.818Z,50.33
2018-01-16T17:54:48.013Z,49.03
2018-01-16T17:57:17.528Z,51.65
2018-01-16T17:59:48.297Z,38.88
2018-01-16T18:02:17.427Z,65.70
2018-01-16T18:04:47.640Z,75.45
2018-01-16T18:07:18.276Z,69.70
2018-01-16T18:09:47.581Z,70.82
2018-01-16T18:12:17.752Z,73.62
2018-01-16T18:14:47.686Z,65.87
2018-01-16T18:17:17.542Z,63.90
2018-01-16T18:19:47.405Z,60.28
2018-01-16T18:22:16.645Z,52.30
2018-01-16T18:24:47.413Z,46.55
2018-01-16T18:27:17.695Z,60.45
2018-01-16T18:29:51.020Z,60.92
2018-01-16T18:32:22.615Z,61.30
2018-01-16T18:34:51.788Z,67.28
2018-01-16T18:37:21.493Z,70.57
2018-01-16T18:39:50.780Z,72.50
2018-01-16T18:42:20.180Z,55.53
2018-01-16T18:44:50.065Z,43.00
2018-01-16T18:47:20.357Z,46.28
2018-01-16T18:49:49.672Z,39.08
2018-01-16T18:52:19.037Z,35.15
2018-01-16T18:54:54.424Z,43.35
2018-01-16T18:57:23.397Z,43.95
2018-01-16T18:59:52.306Z,36.85
2018-01-16T19:02:21.438Z,37.08
2018-01-16T19:04:50.405Z,39.58
2018-01-16T19:07:19.291Z,34.45
2018-01-16T19:09:48.233Z,38.20
2018-01-16T19:12:17.090Z,42.50
2018-01-16T19:14:45.961Z,39.40
2018-01-16T19:17:15.600Z,38.13
2018-01-16T19:19:44.520Z,41.25
2018-01-16T19:22:13.716Z,36.90
2018-01-16T19:24:43.546Z,47.15
2018-01-16T19:27:12.555Z,30.77
2018-01-16T19:29:41.583Z,30.40
2018-01-16T19:32:11.432Z,36.67
2018-01-16T19:34:40.445Z,32.90
2018-01-16T19:37:09.375Z,30.95
2018-01-16T19:39:39.393Z,32.25
2018-01-16T19:44:36.127Z,26.85
2018-01-16T19:47:05.397Z,32.65
2018-01-16T19:49:34.369Z,47.70
2018-01-16T19:52:03.439Z,37.75
2018-01-16T19:54:34.202Z,35.92
2018-01-16T19:57:04.187Z,25.73
2018-01-16T19:59:33.414Z,27.60
2018-01-16T20:02:03.301Z,33.38
2018-01-16T20:04:33.168Z,32.58
2018-01-16T20:07:02.518Z,26.17
2018-01-16T20:09:33.817Z,26.58
2018-01-16T20:12:03.970Z,29.35
2018-01-16T20:14:45.356Z,40.28
2018-01-16T20:17:14.472Z,35.13
2018-01-16T20:19:43.632Z,36.60
2018-01-16T20:22:12.774Z,39.58
2018-01-16T20:24:41.932Z,41.40
2018-01-16T20:27:10.895Z,41.42
2018-01-16T20:29:40.774Z,40.22
2018-01-16T20:32:09.914Z,34.15
2018-01-16T20:34:38.957Z,35.13
2018-01-16T20:37:08.865Z,33.65
2018-01-16T20:39:37.683Z,31.20
2018-01-16T20:42:06.612Z,34.55
2018-01-16T20:44:35.556Z,40.05
2018-01-16T20:47:04.413Z,28.48
2018-01-16T20:49:33.269Z,32.85
2018-01-16T20:52:02.245Z,31.12
2018-01-16T20:54:31.075Z,32.40
2018-01-16T20:56:59.977Z,37.70
2018-01-16T20:59:29.101Z,39.55
2018-01-16T21:01:58.190Z,34.15
2018-01-16T21:04:27.119Z,37.55
2018-01-16T21:06:59.644Z,46.63
2018-01-16T21:09:28.641Z,41.47
2018-01-16T21:11:57.632Z,48.85
2018-01-16T21:14:27.345Z,44.03
2018-01-16T21:16:56.194Z,55.45
2018-01-16T21:19:25.135Z,50.10
2018-01-16T21:21:54.901Z,56.72
2018-01-16T21:24:24.855Z,57.72
2018-01-16T21:26:53.994Z,44.85
2018-01-16T21:29:23.434Z,56.42
2018-01-16T21:31:53.209Z,39.00
2018-01-16T21:34:22.307Z,41.25
2018-01-16T21:36:52.615Z,36.60
2018-01-16T21:39:21.555Z,49.05
2018-01-16T21:41:51.486Z,42.40
2018-01-16T21:44:22.166Z,40.63
2018-01-16T21:46:51.163Z,40.67
2018-01-16T21:49:20.186Z,43.03
2018-01-16T21:51:50.379Z,42.58
2018-01-16T21:54:21.380Z,48.80
2018-01-16T21:56:50.657Z,67.07
2018-01-16T21:59:20.857Z,46.50
2018-01-16T22:01:50.137Z,51.40
2018-01-16T22:04:19.043Z,53.38
2018-01-16T22:06:58.197Z,42.05
2018-01-16T22:09:27.402Z,38.95
2018-01-16T22:11:57.319Z,37.88
2018-01-16T22:14:28.211Z,44.00
2018-01-16T22:16:57.351Z,39.00
2018-01-16T22:19:27.271Z,39.22
2018-01-16T22:21:56.364Z,47.10
2018-01-16T22:24:26.214Z,44.88
2018-01-16T22:26:55.419Z,41.47
2018-01-16T22:29:24.503Z,35.55
2018-01-16T22:31:53.772Z,33.80
2018-01-16T22:34:23.891Z,50.90
2018-01-16T22:36:53.861Z,46.45
2018-01-16T22:39:23.621Z,46.50
2018-01-16T22:41:52.613Z,43.75
2018-01-16T22:44:22.600Z,40.15
2018-01-16T22:46:51.681Z,30.85
2018-01-16T22:49:20.971Z,31.73
2018-01-16T22:51:52.513Z,35.30
2018-01-16T22:54:22.553Z,50.35
2018-01-16T22:56:51.765Z,50.75
2018-01-16T22:59:24.033Z,40.10
2018-01-16T23:01:53.064Z,48.80
2018-01-16T23:04:22.192Z,41.20
2018-01-16T23:06:51.358Z,33.75
2018-01-16T23:09:20.431Z,32.85
2018-01-16T23:11:49.635Z,37.28
2018-01-16T23:14:20.692Z,40.67
2018-01-16T23:16:50.698Z,33.05
2018-01-16T23:19:20.927Z,31.48
2018-01-16T23:21:51.154Z,35.63
2018-01-16T23:24:20.552Z,31.70
2018-01-16T23:26:49.715Z,27.40
2018-01-16T23:29:28.232Z,33.10
2018-01-16T23:31:57.499Z,28.48
2018-01-16T23:34:26.402Z,27.42
2018-01-16T23:36:55.661Z,29.37
2018-01-16T23:39:24.687Z,31.23
2018-01-16T23:41:53.975Z,41.08
2018-01-16T23:44:22.993Z,36.70
2018-01-16T23:46:52.921Z,33.80
2018-01-16T23:49:21.825Z,32.47
2018-01-16T23:51:53.515Z,30.77
2018-01-16T23:54:22.499Z,28.90
2018-01-16T23:56:52.421Z,22.23
2018-01-16T23:59:21.875Z,21.40
